createdAt,value
2019-01-21T00:02:10.127Z,24.20
2019-01-21T00:05:54.487Z,26.87
2019-01-21T00:10:56.978Z,25.33
2019-01-21T00:13:10.415Z,27.23
2019-01-21T00:18:29.754Z,27.83
2019-01-21T00:21:18.754Z,26.33
2019-01-21T00:23:36.734Z,27.50
2019-01-21T00:25:54.330Z,24.83
2019-01-21T00:28:06.618Z,29.10
2019-01-21T00:32:57.927Z,30.17
2019-01-21T00:35:04.947Z,29.23
2019-01-21T00:37:27.675Z,29.47
2019-01-21T00:39:33.537Z,28.87
2019-01-21T00:41:41.174Z,26.27
2019-01-21T00:49:42.450Z,31.67
2019-01-21T00:54:44.674Z,25.87
2019-01-21T01:00:25.265Z,27.70
2019-01-21T01:03:00.148Z,30.97
2019-01-21T01:08:38.374Z,27.60
2019-01-21T01:10:57.306Z,27.20
2019-01-21T01:13:02.457Z,26.80
2019-01-21T01:15:14.489Z,28.77
2019-01-21T01:17:37.101Z,27.93
2019-01-21T01:19:45.512Z,30.37
2019-01-21T01:22:01.379Z,25.57
2019-01-21T01:24:16.524Z,27.83
2019-01-21T01:26:47.097Z,29.97
2019-01-21T01:29:08.224Z,27.10
2019-01-21T01:31:23.604Z,28.70
2019-01-21T01:36:14.540Z,28.63
2019-01-21T01:38:29.505Z,29.57
2019-01-21T01:41:12.014Z,25.60
2019-01-21T01:44:00.559Z,27.77
2019-01-21T01:46:14.502Z,25.83
2019-01-21T01:48:26.903Z,27.23
2019-01-21T02:02:21.823Z,27.27
2019-01-21T02:05:00.242Z,27.57
2019-01-21T02:07:26.766Z,26.87
2019-01-21T02:09:34.784Z,26.57
2019-01-21T02:12:21.145Z,28.00
2019-01-21T02:14:33.666Z,25.73
2019-01-21T02:16:43.863Z,26.33
2019-01-21T02:18:54.246Z,29.53
2019-01-21T02:21:12.941Z,27.93
2019-01-21T02:23:37.713Z,26.37
2019-01-21T02:25:54.335Z,26.40
2019-01-21T02:28:27.748Z,26.33
2019-01-21T02:31:58.414Z,25.17
2019-01-21T02:34:55.985Z,24.57
2019-01-21T02:38:18.432Z,26.23
2019-01-21T02:41:02.208Z,26.30
2019-01-21T02:44:09.483Z,26.30
2019-01-21T02:57:03.698Z,21.93
2019-01-21T02:59:46.934Z,24.97
2019-01-21T03:02:43.907Z,26.10
2019-01-21T03:05:37.104Z,24.50
2019-01-21T03:08:07.870Z,21.77
2019-01-21T03:10:39.368Z,21.33
2019-01-21T03:13:31.614Z,21.53
2019-01-21T03:16:19.085Z,23.00
2019-01-21T03:19:07.947Z,23.43
2019-01-21T03:21:52.061Z,26.50
2019-01-21T03:24:38.834Z,24.67
2019-01-21T03:27:24.048Z,23.00
2019-01-21T03:30:28.515Z,23.37
2019-01-21T03:33:17.024Z,21.13
2019-01-21T03:36:01.206Z,22.57
2019-01-21T03:39:03.888Z,24.63
2019-01-21T03:41:41.675Z,23.97
2019-01-21T03:45:05.337Z,23.43
2019-01-21T03:47:58.824Z,22.77
2019-01-21T03:50:45.775Z,21.47
2019-01-21T03:53:48.483Z,21.73
2019-01-21T03:56:03.793Z,18.40
2019-01-21T03:59:01.123Z,20.17
2019-01-21T04:01:56.622Z,22.37
2019-01-21T04:04:49.052Z,17.30
2019-01-21T04:07:34.035Z,20.20
2019-01-21T04:10:30.609Z,22.90
2019-01-21T04:13:14.892Z,15.80
2019-01-21T04:15:47.349Z,19.20
2019-01-21T04:18:33.135Z,17.63
2019-01-21T04:21:18.312Z,17.53
2019-01-21T04:24:17.475Z,15.70
2019-01-21T04:27:02.635Z,18.00
2019-01-21T04:29:41.376Z,16.57
2019-01-21T04:32:39.073Z,15.77
2019-01-21T04:35:11.741Z,17.50
2019-01-21T04:37:43.403Z,14.47
2019-01-21T04:40:34.731Z,16.63
2019-01-21T04:43:18.635Z,15.97
2019-01-21T04:45:49.089Z,14.40
2019-01-21T04:48:33.183Z,13.13
2019-01-21T04:51:16.240Z,13.13
2019-01-21T04:54:24.039Z,14.43
2019-01-21T04:56:57.164Z,13.33
2019-01-21T04:59:51.333Z,15.07
2019-01-21T05:02:26.445Z,13.23
2019-01-21T05:05:09.209Z,13.37
2019-01-21T05:08:18.408Z,14.93
2019-01-21T05:11:04.432Z,14.00
2019-01-21T05:13:30.563Z,12.50
2019-01-21T05:16:01.927Z,12.00
2019-01-21T05:18:41.315Z,11.00
2019-01-21T05:21:29.480Z,13.93
2019-01-21T05:24:05.713Z,12.00
2019-01-21T05:26:35.243Z,14.27
2019-01-21T05:29:24.285Z,12.57
2019-01-21T05:32:02.863Z,11.47
2019-01-21T05:35:01.189Z,14.33
2019-01-21T05:37:49.872Z,13.17
2019-01-21T05:40:38.564Z,13.30
2019-01-21T05:43:45.360Z,12.77
2019-01-21T05:46:44.948Z,14.50
2019-01-21T05:50:01.798Z,10.67
2019-01-21T05:52:49.986Z,13.87
2019-01-21T05:55:33.446Z,13.33
2019-01-21T05:58:28.687Z,11.77
2019-01-21T06:01:27.583Z,14.07
2019-01-21T06:04:24.800Z,12.30
2019-01-21T06:07:28.486Z,13.70
2019-01-21T06:10:26.880Z,12.77
2019-01-21T06:13:23.028Z,14.03
2019-01-21T06:19:32.441Z,14.80
2019-01-21T06:22:19.113Z,14.50
2019-01-21T06:24:55.797Z,12.23
2019-01-21T06:27:34.672Z,11.50
2019-01-21T06:30:10.074Z,11.60
2019-01-21T06:33:33.772Z,10.87
2019-01-21T06:36:10.306Z,12.93
2019-01-21T06:38:39.848Z,10.50
2019-01-21T06:41:20.488Z,13.33
2019-01-21T06:44:19.385Z,13.37
2019-01-21T06:47:26.346Z,16.27
2019-01-21T06:49:53.805Z,16.27
2019-01-21T06:52:48.664Z,17.63
2019-01-21T06:56:13.085Z,15.53
2019-01-21T06:59:25.331Z,14.27
2019-01-21T07:05:42.285Z,17.77
2019-01-21T07:11:41.573Z,19.13
2019-01-21T07:17:50.377Z,13.37
2019-01-21T07:20:31.709Z,11.67
2019-01-21T07:23:51.551Z,12.27
2019-01-21T07:27:02.981Z,9.97
2019-01-21T07:33:04.675Z,8.77
2019-01-21T07:36:23.811Z,8.60
2019-01-21T07:39:10.216Z,8.10
2019-01-21T07:42:10.519Z,8.90
2019-01-21T07:44:48.248Z,7.50
2019-01-21T07:47:38.703Z,32.80
2019-01-21T07:50:25.088Z,7.93
2019-01-21T07:52:59.965Z,7.93
2019-01-21T07:59:26.447Z,7.83
2019-01-21T08:02:16.581Z,8.60
2019-01-21T08:07:52.865Z,9.90
2019-01-21T08:10:53.591Z,8.27
2019-01-21T08:13:29.491Z,6.80
2019-01-21T08:16:37.053Z,11.47
2019-01-21T08:19:31.001Z,9.90
2019-01-21T08:22:36.694Z,10.83
2019-01-21T08:25:12.330Z,11.67
2019-01-21T08:28:02.701Z,13.10
2019-01-21T08:30:22.883Z,12.13
2019-01-21T08:33:46.642Z,9.73
2019-01-21T08:36:20.938Z,8.63
2019-01-21T08:39:23.199Z,9.40
2019-01-21T09:05:07.247Z,10.17
2019-01-21T09:17:50.976Z,15.97
2019-01-21T09:20:38.499Z,15.60
2019-01-21T09:27:26.594Z,19.73
2019-01-21T09:40:02.998Z,19.10
2019-01-21T09:42:37.369Z,21.17
2019-01-21T09:45:19.415Z,19.70
2019-01-21T09:47:43.161Z,21.80
2019-01-21T09:50:22.965Z,25.00
2019-01-21T09:53:26.537Z,22.43
2019-01-21T10:13:27.385Z,19.87
2019-01-21T10:19:26.271Z,20.07
2019-01-21T10:35:57.403Z,23.83
2019-01-21T10:51:47.083Z,26.00
2019-01-21T10:54:30.167Z,23.13
2019-01-21T10:57:12.107Z,24.33
2019-01-21T11:00:04.976Z,25.07
2019-01-21T11:09:20.055Z,21.93
2019-01-21T11:12:04.711Z,21.90
2019-01-21T11:18:06.054Z,25.27
2019-01-21T13:41:02.541Z,31.60
2019-01-21T13:47:30.831Z,32.67
2019-01-21T13:48:06.877Z,33.43
2019-01-21T13:59:57.593Z,30.20
2019-01-21T14:02:23.490Z,29.33
2019-01-21T14:05:23.431Z,28.80
2019-01-21T15:21:23.937Z,33.57
2019-01-21T15:40:26.508Z,33.27
2019-01-21T16:01:07.688Z,15.47
2019-01-21T16:16:29.416Z,12.37
2019-01-21T16:42:57.321Z,12.43
2019-01-21T16:48:37.234Z,12.73
2019-01-21T16:50:51.112Z,14.10
2019-01-21T16:55:38.260Z,13.57
2019-01-21T17:01:22.208Z,11.43
2019-01-21T17:32:33.941Z,12.17
2019-01-21T17:35:12.829Z,13.97
2019-01-21T17:40:33.224Z,12.00
2019-01-21T17:48:45.004Z,16.03
2019-01-21T17:58:11.673Z,14.47
2019-01-21T18:01:39.220Z,16.50
2019-01-21T18:07:43.947Z,15.43
2019-01-21T18:14:08.917Z,16.20
2019-01-21T18:16:26.830Z,15.67
2019-01-21T18:44:01.810Z,16.07
2019-01-21T18:50:10.567Z,18.30
2019-01-21T18:52:20.628Z,19.53
2019-01-21T19:18:15.634Z,21.73
2019-01-21T19:43:38.347Z,28.47
2019-01-21T19:46:53.422Z,30.33
2019-01-21T19:56:12.305Z,34.07
2019-01-21T20:08:17.590Z,36.17
2019-01-21T20:23:13.930Z,32.73
2019-01-21T20:39:16.187Z,30.13
2019-01-21T21:08:07.782Z,20.47
2019-01-21T21:57:47.828Z,20.67
2019-01-21T22:00:28.477Z,21.27
2019-01-21T22:12:20.468Z,19.40
2019-01-21T23:30:18.626Z,18.33
2019-01-21T23:39:12.883Z,9.37
2019-01-21T23:41:28.671Z,9.13
2019-01-21T23:47:08.712Z,10.40
